createdAt,value
2023-11-15T00:03:49.443Z,29.1
2023-11-15T00:08:50.166Z,29
2023-11-15T00:13:50.787Z,29.1
2023-11-15T00:18:51.355Z,29.1
2023-11-15T00:23:51.961Z,29
2023-11-15T00:28:52.586Z,29.1
2023-11-15T00:33:53.211Z,29
2023-11-15T00:38:53.834Z,29
2023-11-15T00:43:54.432Z,29
2023-11-15T00:48:55.036Z,29
2023-11-15T00:53:55.648Z,29
2023-11-15T00:58:56.238Z,29
2023-11-15T01:03:56.898Z,29
2023-11-15T01:08:57.726Z,29
2023-11-15T01:13:58.299Z,29
2023-11-15T01:18:58.870Z,29
2023-11-15T01:23:59.492Z,29
2023-11-15T01:29:00.114Z,29
2023-11-15T01:34:00.713Z,29
2023-11-15T01:39:01.298Z,29
2023-11-15T01:44:01.903Z,29
2023-11-15T01:49:02.497Z,29
2023-11-15T01:54:03.073Z,29
2023-11-15T01:59:03.623Z,29
2023-11-15T02:04:04.310Z,29
2023-11-15T02:09:04.938Z,29
2023-11-15T02:14:05.503Z,28.9
2023-11-15T02:19:06.073Z,28.9
2023-11-15T02:24:06.679Z,29
2023-11-15T02:29:07.325Z,29
2023-11-15T02:34:07.900Z,28.9
2023-11-15T02:39:08.469Z,29
2023-11-15T02:44:09.196Z,29
2023-11-15T02:49:09.783Z,29
2023-11-15T02:54:10.382Z,29
2023-11-15T02:59:10.951Z,29
2023-11-15T03:04:11.708Z,28.9
2023-11-15T03:09:12.352Z,28.9
2023-11-15T03:14:12.922Z,28.9
2023-11-15T03:19:13.503Z,29
2023-11-15T03:24:14.149Z,29
2023-11-15T03:29:14.727Z,28.9
2023-11-15T03:34:15.294Z,29
2023-11-15T03:39:15.877Z,29
2023-11-15T03:44:16.513Z,28.9
2023-11-15T03:49:17.085Z,29
2023-11-15T03:54:17.665Z,29
2023-11-15T03:59:18.262Z,29
2023-11-15T04:04:19.007Z,28.9
2023-11-15T04:09:19.678Z,28.9
2023-11-15T04:14:20.260Z,28.9
2023-11-15T04:19:20.843Z,28.9
2023-11-15T04:24:21.436Z,28.9
2023-11-15T04:29:22.002Z,28.9
2023-11-15T04:34:22.581Z,28.9
2023-11-15T04:39:23.182Z,28.9
2023-11-15T04:44:23.917Z,28.9
2023-11-15T04:49:24.524Z,28.8
2023-11-15T04:54:25.097Z,28.8
2023-11-15T04:59:25.772Z,28.7
2023-11-15T05:04:26.453Z,28.6
2023-11-15T05:09:27.105Z,28.6
2023-11-15T05:14:27.719Z,28.6
2023-11-15T05:19:28.428Z,28.7
2023-11-15T05:24:29.002Z,28.7
2023-11-15T05:29:29.586Z,28.7
2023-11-15T05:34:30.193Z,28.7
2023-11-15T05:39:30.897Z,28.7
2023-11-15T05:44:31.543Z,28.7
2023-11-15T05:49:32.176Z,28.7
2023-11-15T05:54:32.818Z,28.7
2023-11-15T05:59:33.469Z,28.7
2023-11-15T06:04:34.099Z,28.7
2023-11-15T06:09:34.706Z,28.7
2023-11-15T06:14:35.371Z,28.7
2023-11-15T06:19:35.957Z,28.7
2023-11-15T06:24:36.530Z,28.7
2023-11-15T06:29:37.167Z,28.6
2023-11-15T06:34:37.925Z,28.6
2023-11-15T06:39:17.644Z,28.6
2023-11-15T06:43:29.268Z,28.6
2023-11-15T06:48:24.129Z,28.6
2023-11-15T06:51:57.173Z,28.6
2023-11-15T06:56:57.815Z,28.7
2023-11-15T07:01:58.387Z,28.6
2023-11-15T07:06:58.988Z,28.6
2023-11-15T07:11:59.634Z,28.6
2023-11-15T07:17:00.274Z,28.6
2023-11-15T07:22:00.886Z,28.6
2023-11-15T07:27:01.519Z,28.6
2023-11-15T07:32:02.188Z,28.5
2023-11-15T07:37:02.789Z,28.5
2023-11-15T07:42:03.410Z,28.5
2023-11-15T07:47:04.096Z,28.5
2023-11-15T07:52:04.706Z,28.5
2023-11-15T07:57:05.351Z,28.5
2023-11-15T08:02:06.021Z,28.5
2023-11-15T08:07:06.596Z,28.5
2023-11-15T08:12:07.282Z,28.5
2023-11-15T08:17:07.897Z,28.5
2023-11-15T08:22:08.468Z,28.5
2023-11-15T08:27:09.088Z,28.5
2023-11-15T08:32:09.736Z,28.5
2023-11-15T08:37:10.348Z,28.5
2023-11-15T08:42:10.968Z,28.5
2023-11-15T08:47:11.690Z,28.5
2023-11-15T08:52:12.281Z,28.5
2023-11-15T08:57:12.889Z,28.5
2023-11-15T09:02:13.494Z,28.5
2023-11-15T09:07:14.102Z,28.6
2023-11-15T09:12:14.797Z,28.6
2023-11-15T09:17:15.409Z,28.6
2023-11-15T09:22:16.001Z,28.5
2023-11-15T09:27:17.215Z,28.6
2023-11-15T09:32:17.948Z,28.5
2023-11-15T09:37:18.514Z,28.6
2023-11-15T09:42:19.138Z,28.5
2023-11-15T09:47:19.761Z,28.6
2023-11-15T09:52:20.384Z,28.5
2023-11-15T09:57:20.995Z,28.5
2023-11-15T10:02:21.585Z,28.5
2023-11-15T10:07:22.209Z,28.5
2023-11-15T10:12:22.815Z,28.5
2023-11-15T10:17:23.399Z,28.6
2023-11-15T10:22:24.101Z,28.6
2023-11-15T10:27:24.708Z,28.6
2023-11-15T10:32:25.279Z,28.6
2023-11-15T10:37:25.846Z,28.5
2023-11-15T10:42:26.533Z,28.5
2023-11-15T10:47:27.102Z,28.5
2023-11-15T10:52:27.693Z,28.5
2023-11-15T10:57:28.317Z,28.5
2023-11-15T11:02:29.223Z,28.5
2023-11-15T11:07:29.868Z,28.5
2023-11-15T11:12:30.462Z,28.5
2023-11-15T11:17:31.154Z,28.5
2023-11-15T11:22:31.826Z,28.5
2023-11-15T11:27:32.424Z,28.5
2023-11-15T11:32:33.326Z,28.5
2023-11-15T11:37:34.104Z,28.5
2023-11-15T11:42:34.702Z,28.5
2023-11-15T11:47:35.352Z,28.4
2023-11-15T11:52:35.936Z,28.4
2023-11-15T11:57:36.538Z,28.4
2023-11-15T12:02:37.210Z,28.4
2023-11-15T12:07:38.074Z,28.4
2023-11-15T12:12:38.657Z,28.4
2023-11-15T12:17:39.309Z,28.4
2023-11-15T12:22:39.905Z,28.4
2023-11-15T12:27:40.480Z,28.4
2023-11-15T12:32:41.112Z,28.4
2023-11-15T12:37:41.919Z,28.4
2023-11-15T12:42:42.495Z,28.4
2023-11-15T12:47:43.161Z,28.5
2023-11-15T13:27:47.748Z,28.5
2023-11-15T13:37:48.943Z,28.5
2023-11-15T14:52:57.458Z,28.4
2023-11-15T15:23:00.863Z,28.4
2023-11-15T16:26:32.202Z,28.3
2023-11-15T16:31:32.896Z,28.2
2023-11-15T16:36:33.478Z,28.3
2023-11-15T16:41:34.063Z,28.3
2023-11-15T16:46:34.724Z,28.3
2023-11-15T16:51:35.363Z,28.3
2023-11-15T16:56:35.925Z,28.3
2023-11-15T17:01:36.485Z,28.3
2023-11-15T17:06:37.116Z,28.2
2023-11-15T17:11:37.726Z,28.3
2023-11-15T17:16:38.344Z,28.2
2023-11-15T17:21:39.039Z,28.2
2023-11-15T17:26:39.723Z,28.2
2023-11-15T17:31:40.434Z,28.2
2023-11-15T17:36:41.080Z,28.2
2023-11-15T17:41:41.759Z,28.2
2023-11-15T17:46:42.461Z,28.3
2023-11-15T17:51:43.168Z,28.2
2023-11-15T17:56:43.801Z,28.2
2023-11-15T18:01:44.429Z,28.2
2023-11-15T18:06:45.141Z,28.2
2023-11-15T18:11:45.778Z,28.2
2023-11-15T18:16:46.460Z,28.2
2023-11-15T18:21:47.092Z,28.2
2023-11-15T18:26:47.729Z,28.2
2023-11-15T18:31:51.112Z,28.2
2023-11-15T18:36:53.311Z,28.2
2023-11-15T18:45:39.990Z,28.2
2023-11-15T18:50:40.777Z,28.2
2023-11-15T18:55:41.377Z,28.2
2023-11-15T19:00:42.015Z,28.2
2023-11-15T19:05:42.662Z,28.2
2023-11-15T19:10:43.264Z,28.2
2023-11-15T19:15:43.870Z,28.2
2023-11-15T19:20:44.490Z,28.2
2023-11-15T19:25:45.091Z,28.2
2023-11-15T19:30:45.692Z,28.2
2023-11-15T19:35:46.272Z,28.2
2023-11-15T19:40:46.893Z,28.1
2023-11-15T19:45:47.598Z,28.2
2023-11-15T19:50:48.271Z,28.2
2023-11-15T19:55:48.881Z,28.2
2023-11-15T20:00:49.499Z,28.2
2023-11-15T20:05:50.080Z,28.2
2023-11-15T20:10:50.641Z,28.2
2023-11-15T20:15:51.241Z,28.2
2023-11-15T20:20:51.904Z,28.2
2023-11-15T20:25:52.487Z,28.2
2023-11-15T20:30:53.055Z,28.2
2023-11-15T20:35:53.731Z,28.1
2023-11-15T20:40:54.356Z,28.1
2023-11-15T20:46:00.123Z,28.1
2023-11-15T20:51:18.967Z,28.1
2023-11-15T20:56:19.633Z,28.1
2023-11-15T21:59:53.929Z,28.1
2023-11-15T22:29:57.413Z,28.1
2023-11-15T23:00:00.893Z,28.1
2023-11-15T23:06:59.584Z,28.1
2023-11-15T23:12:00.277Z,28
2023-11-15T23:17:01.009Z,28.1
2023-11-15T23:22:03.540Z,28.1
2023-11-15T23:27:05.140Z,28.1
2023-11-15T23:32:05.743Z,28.1
2023-11-15T23:37:06.437Z,28.1
2023-11-15T23:42:07.054Z,28.1
2023-11-15T23:47:07.677Z,28
2023-11-15T23:52:08.383Z,28
2023-11-15T23:57:09.147Z,28
